sensor_id;sensor_type;location;lat;lon;timestamp;P1;durP1;ratioP1;P2;durP2;ratioP2
18748;SDS011;9503;53.560;10.246;2023-09-18T00:01:44;7.35;;;5.68;;
18748;SDS011;9503;53.560;10.246;2023-09-18T00:04:11;5.47;;;4.95;;
18748;SDS011;9503;53.560;10.246;2023-09-18T00:06:37;6.97;;;5.30;;
18748;SDS011;9503;53.560;10.246;2023-09-18T00:09:04;5.50;;;4.82;;
18748;SDS011;9503;53.560;10.246;2023-09-18T00:11:32;5.95;;;5.30;;
18748;SDS011;9503;53.560;10.246;2023-09-18T00:13:58;6.28;;;5.25;;
18748;SDS011;9503;53.560;10.246;2023-09-18T00:16:26;5.25;;;4.78;;
18748;SDS011;9503;53.560;10.246;2023-09-18T00:18:53;6.05;;;5.00;;
18748;SDS011;9503;53.560;10.246;2023-09-18T00:21:20;6.47;;;5.30;;
18748;SDS011;9503;53.560;10.246;2023-09-18T00:23:47;6.15;;;4.88;;
18748;SDS011;9503;53.560;10.246;2023-09-18T00:26:13;5.75;;;4.90;;
18748;SDS011;9503;53.560;10.246;2023-09-18T00:28:40;5.50;;;5.00;;
18748;SDS011;9503;53.560;10.246;2023-09-18T00:31:06;8.50;;;5.22;;
18748;SDS011;9503;53.560;10.246;2023-09-18T00:33:35;6.20;;;5.35;;
18748;SDS011;9503;53.560;10.246;2023-09-18T00:36:02;8.63;;;5.20;;
18748;SDS011;9503;53.560;10.246;2023-09-18T00:38:29;6.15;;;5.50;;
18748;SDS011;9503;53.560;10.246;2023-09-18T00:40:56;7.50;;;5.32;;
18748;SDS011;9503;53.560;10.246;2023-09-18T00:43:22;5.40;;;4.85;;
18748;SDS011;9503;53.560;10.246;2023-09-18T00:45:49;6.03;;;5.43;;
18748;SDS011;9503;53.560;10.246;2023-09-18T00:48:16;7.63;;;5.93;;
18748;SDS011;9503;53.560;10.246;2023-09-18T00:50:44;6.60;;;5.10;;
18748;SDS011;9503;53.560;10.246;2023-09-18T00:53:12;6.32;;;5.72;;
18748;SDS011;9503;53.560;10.246;2023-09-18T00:55:41;7.03;;;5.68;;
18748;SDS011;9503;53.560;10.246;2023-09-18T00:58:08;6.78;;;6.07;;
18748;SDS011;9503;53.560;10.246;2023-09-18T01:00:36;6.93;;;5.88;;
18748;SDS011;9503;53.560;10.246;2023-09-18T01:03:03;6.10;;;5.30;;
18748;SDS011;9503;53.560;10.246;2023-09-18T01:05:31;8.57;;;5.90;;
18748;SDS011;9503;53.560;10.246;2023-09-18T01:07:59;6.15;;;5.50;;
18748;SDS011;9503;53.560;10.246;2023-09-18T01:10:28;6.40;;;5.60;;
18748;SDS011;9503;53.560;10.246;2023-09-18T01:13:00;8.07;;;6.20;;
18748;SDS011;9503;53.560;10.246;2023-09-18T01:15:32;7.28;;;5.85;;
18748;SDS011;9503;53.560;10.246;2023-09-18T01:18:03;7.18;;;6.03;;
18748;SDS011;9503;53.560;10.246;2023-09-18T01:20:30;6.80;;;5.57;;
18748;SDS011;9503;53.560;10.246;2023-09-18T01:22:58;6.03;;;5.43;;
18748;SDS011;9503;53.560;10.246;2023-09-18T01:25:25;6.40;;;5.45;;
18748;SDS011;9503;53.560;10.246;2023-09-18T01:27:51;7.57;;;5.50;;
18748;SDS011;9503;53.560;10.246;2023-09-18T01:30:18;7.68;;;5.88;;
18748;SDS011;9503;53.560;10.246;2023-09-18T01:32:45;8.13;;;5.70;;
18748;SDS011;9503;53.560;10.246;2023-09-18T01:35:12;7.22;;;5.60;;
18748;SDS011;9503;53.560;10.246;2023-09-18T01:37:40;6.10;;;5.28;;
18748;SDS011;9503;53.560;10.246;2023-09-18T01:40:09;6.57;;;5.55;;
18748;SDS011;9503;53.560;10.246;2023-09-18T01:42:37;6.13;;;5.53;;
18748;SDS011;9503;53.560;10.246;2023-09-18T01:45:07;7.35;;;5.55;;
18748;SDS011;9503;53.560;10.246;2023-09-18T01:47:34;7.10;;;5.32;;
18748;SDS011;9503;53.560;10.246;2023-09-18T01:50:02;7.50;;;5.88;;
18748;SDS011;9503;53.560;10.246;2023-09-18T01:52:31;9.27;;;5.88;;
18748;SDS011;9503;53.560;10.246;2023-09-18T01:54:59;7.22;;;5.90;;
18748;SDS011;9503;53.560;10.246;2023-09-18T01:57:27;7.38;;;6.13;;
18748;SDS011;9503;53.560;10.246;2023-09-18T01:59:54;10.27;;;6.32;;
18748;SDS011;9503;53.560;10.246;2023-09-18T02:02:21;7.45;;;5.85;;
18748;SDS011;9503;53.560;10.246;2023-09-18T02:04:47;6.70;;;5.60;;
18748;SDS011;9503;53.560;10.246;2023-09-18T02:07:14;8.38;;;5.45;;
18748;SDS011;9503;53.560;10.246;2023-09-18T02:09:41;6.35;;;5.47;;
18748;SDS011;9503;53.560;10.246;2023-09-18T02:12:08;8.13;;;6.00;;
18748;SDS011;9503;53.560;10.246;2023-09-18T02:14:36;8.02;;;5.78;;
18748;SDS011;9503;53.560;10.246;2023-09-18T02:17:03;8.15;;;6.07;;
18748;SDS011;9503;53.560;10.246;2023-09-18T02:19:30;6.45;;;5.75;;
18748;SDS011;9503;53.560;10.246;2023-09-18T02:21:57;6.32;;;5.60;;
18748;SDS011;9503;53.560;10.246;2023-09-18T02:24:23;6.60;;;5.90;;
18748;SDS011;9503;53.560;10.246;2023-09-18T02:26:50;7.15;;;5.70;;
18748;SDS011;9503;53.560;10.246;2023-09-18T02:29:16;7.47;;;5.50;;
18748;SDS011;9503;53.560;10.246;2023-09-18T02:31:44;7.03;;;5.40;;
18748;SDS011;9503;53.560;10.246;2023-09-18T02:34:11;7.07;;;5.15;;
18748;SDS011;9503;53.560;10.246;2023-09-18T02:36:38;6.38;;;5.75;;
18748;SDS011;9503;53.560;10.246;2023-09-18T02:39:04;9.90;;;5.82;;
18748;SDS011;9503;53.560;10.246;2023-09-18T02:41:31;7.60;;;5.78;;
18748;SDS011;9503;53.560;10.246;2023-09-18T02:43:58;6.25;;;5.57;;
18748;SDS011;9503;53.560;10.246;2023-09-18T02:46:24;5.95;;;5.32;;
18748;SDS011;9503;53.560;10.246;2023-09-18T02:48:52;6.13;;;5.50;;
18748;SDS011;9503;53.560;10.246;2023-09-18T02:51:19;8.20;;;5.57;;
18748;SDS011;9503;53.560;10.246;2023-09-18T02:53:46;9.30;;;6.28;;
18748;SDS011;9503;53.560;10.246;2023-09-18T02:56:13;6.22;;;5.63;;
18748;SDS011;9503;53.560;10.246;2023-09-18T02:58:39;8.48;;;6.20;;
18748;SDS011;9503;53.560;10.246;2023-09-18T03:01:06;10.45;;;6.07;;
18748;SDS011;9503;53.560;10.246;2023-09-18T03:03:34;6.63;;;5.57;;
18748;SDS011;9503;53.560;10.246;2023-09-18T03:06:02;6.40;;;5.45;;
18748;SDS011;9503;53.560;10.246;2023-09-18T03:08:29;7.47;;;6.05;;
18748;SDS011;9503;53.560;10.246;2023-09-18T03:10:56;6.22;;;5.22;;
18748;SDS011;9503;53.560;10.246;2023-09-18T03:13:23;7.10;;;6.38;;
18748;SDS011;9503;53.560;10.246;2023-09-18T03:15:49;8.95;;;6.05;;
18748;SDS011;9503;53.560;10.246;2023-09-18T03:18:16;9.88;;;6.93;;
18748;SDS011;9503;53.560;10.246;2023-09-18T03:20:43;6.55;;;5.82;;
18748;SDS011;9503;53.560;10.246;2023-09-18T03:23:11;6.70;;;6.00;;
18748;SDS011;9503;53.560;10.246;2023-09-18T03:25:39;8.15;;;5.55;;
18748;SDS011;9503;53.560;10.246;2023-09-18T03:28:05;6.88;;;5.93;;
18748;SDS011;9503;53.560;10.246;2023-09-18T03:30:32;7.78;;;6.32;;
18748;SDS011;9503;53.560;10.246;2023-09-18T03:32:59;8.50;;;6.18;;
18748;SDS011;9503;53.560;10.246;2023-09-18T03:35:28;9.32;;;5.57;;
18748;SDS011;9503;53.560;10.246;2023-09-18T03:37:55;7.32;;;5.72;;
18748;SDS011;9503;53.560;10.246;2023-09-18T03:40:23;7.10;;;6.25;;
18748;SDS011;9503;53.560;10.246;2023-09-18T03:42:51;8.93;;;6.40;;
18748;SDS011;9503;53.560;10.246;2023-09-18T03:45:17;7.22;;;6.53;;
18748;SDS011;9503;53.560;10.246;2023-09-18T03:47:45;9.40;;;7.00;;
18748;SDS011;9503;53.560;10.246;2023-09-18T03:50:11;8.10;;;6.22;;
18748;SDS011;9503;53.560;10.246;2023-09-18T03:52:38;8.30;;;6.32;;
18748;SDS011;9503;53.560;10.246;2023-09-18T03:55:06;7.32;;;5.75;;
18748;SDS011;9503;53.560;10.246;2023-09-18T03:57:35;9.32;;;6.65;;
18748;SDS011;9503;53.560;10.246;2023-09-18T04:00:03;9.00;;;6.85;;
18748;SDS011;9503;53.560;10.246;2023-09-18T04:02:32;10.13;;;6.53;;
18748;SDS011;9503;53.560;10.246;2023-09-18T04:04:59;7.82;;;7.03;;
18748;SDS011;9503;53.560;10.246;2023-09-18T04:07:25;7.63;;;6.28;;
18748;SDS011;9503;53.560;10.246;2023-09-18T04:09:52;9.60;;;7.00;;
18748;SDS011;9503;53.560;10.246;2023-09-18T04:12:19;8.85;;;7.13;;
18748;SDS011;9503;53.560;10.246;2023-09-18T04:14:47;9.07;;;6.70;;
18748;SDS011;9503;53.560;10.246;2023-09-18T04:17:13;7.57;;;6.53;;
18748;SDS011;9503;53.560;10.246;2023-09-18T04:19:40;8.32;;;6.80;;
18748;SDS011;9503;53.560;10.246;2023-09-18T04:22:08;8.30;;;6.60;;
18748;SDS011;9503;53.560;10.246;2023-09-18T04:24:35;8.13;;;6.55;;
18748;SDS011;9503;53.560;10.246;2023-09-18T04:27:01;7.35;;;6.38;;
18748;SDS011;9503;53.560;10.246;2023-09-18T04:29:28;8.55;;;6.70;;
18748;SDS011;9503;53.560;10.246;2023-09-18T04:31:56;10.00;;;6.95;;
18748;SDS011;9503;53.560;10.246;2023-09-18T04:34:23;7.35;;;6.57;;
18748;SDS011;9503;53.560;10.246;2023-09-18T04:36:50;7.35;;;6.25;;
18748;SDS011;9503;53.560;10.246;2023-09-18T04:39:16;9.15;;;7.30;;
18748;SDS011;9503;53.560;10.246;2023-09-18T04:41:44;7.53;;;6.40;;
18748;SDS011;9503;53.560;10.246;2023-09-18T04:44:11;9.05;;;6.40;;
18748;SDS011;9503;53.560;10.246;2023-09-18T04:46:39;7.82;;;6.30;;
18748;SDS011;9503;53.560;10.246;2023-09-18T04:49:08;8.32;;;6.68;;
18748;SDS011;9503;53.560;10.246;2023-09-18T04:51:36;8.38;;;6.82;;
18748;SDS011;9503;53.560;10.246;2023-09-18T04:54:04;9.88;;;7.40;;
18748;SDS011;9503;53.560;10.246;2023-09-18T04:56:31;8.27;;;6.70;;
18748;SDS011;9503;53.560;10.246;2023-09-18T04:58:57;9.48;;;7.15;;
18748;SDS011;9503;53.560;10.246;2023-09-18T05:01:24;9.40;;;7.00;;
18748;SDS011;9503;53.560;10.246;2023-09-18T05:03:50;8.18;;;6.85;;
18748;SDS011;9503;53.560;10.246;2023-09-18T05:06:20;9.70;;;7.10;;
18748;SDS011;9503;53.560;10.246;2023-09-18T05:08:46;9.38;;;7.00;;
18748;SDS011;9503;53.560;10.246;2023-09-18T05:11:13;7.72;;;6.90;;
18748;SDS011;9503;53.560;10.246;2023-09-18T05:13:40;10.63;;;7.10;;
18748;SDS011;9503;53.560;10.246;2023-09-18T05:16:06;9.68;;;6.68;;
18748;SDS011;9503;53.560;10.246;2023-09-18T05:18:33;9.15;;;6.78;;
18748;SDS011;9503;53.560;10.246;2023-09-18T05:21:00;8.48;;;6.68;;
18748;SDS011;9503;53.560;10.246;2023-09-18T05:23:30;7.25;;;6.40;;
18748;SDS011;9503;53.560;10.246;2023-09-18T05:25:57;7.60;;;6.15;;
18748;SDS011;9503;53.560;10.246;2023-09-18T05:28:24;10.15;;;7.22;;
18748;SDS011;9503;53.560;10.246;2023-09-18T05:30:51;9.40;;;6.60;;
18748;SDS011;9503;53.560;10.246;2023-09-18T05:33:18;8.13;;;6.90;;
18748;SDS011;9503;53.560;10.246;2023-09-18T05:35:45;12.57;;;7.22;;
18748;SDS011;9503;53.560;10.246;2023-09-18T05:38:12;7.47;;;6.40;;
18748;SDS011;9503;53.560;10.246;2023-09-18T05:40:41;6.82;;;5.93;;
18748;SDS011;9503;53.560;10.246;2023-09-18T05:43:08;8.23;;;6.10;;
18748;SDS011;9503;53.560;10.246;2023-09-18T05:45:35;8.02;;;6.55;;
18748;SDS011;9503;53.560;10.246;2023-09-18T05:48:02;8.35;;;6.50;;
18748;SDS011;9503;53.560;10.246;2023-09-18T05:50:30;7.30;;;6.25;;
18748;SDS011;9503;53.560;10.246;2023-09-18T05:52:57;8.25;;;6.45;;
18748;SDS011;9503;53.560;10.246;2023-09-18T05:55:25;7.45;;;6.28;;
18748;SDS011;9503;53.560;10.246;2023-09-18T05:57:53;11.02;;;7.25;;
18748;SDS011;9503;53.560;10.246;2023-09-18T06:00:20;8.52;;;6.82;;
18748;SDS011;9503;53.560;10.246;2023-09-18T06:02:47;7.90;;;7.10;;
18748;SDS011;9503;53.560;10.246;2023-09-18T06:05:14;8.18;;;6.13;;
18748;SDS011;9503;53.560;10.246;2023-09-18T06:07:42;7.70;;;6.28;;
18748;SDS011;9503;53.560;10.246;2023-09-18T06:10:09;6.93;;;6.22;;
18748;SDS011;9503;53.560;10.246;2023-09-18T06:12:37;7.95;;;6.35;;
18748;SDS011;9503;53.560;10.246;2023-09-18T06:15:06;8.13;;;5.38;;
18748;SDS011;9503;53.560;10.246;2023-09-18T06:17:35;6.68;;;5.30;;
18748;SDS011;9503;53.560;10.246;2023-09-18T06:20:02;6.38;;;5.78;;
18748;SDS011;9503;53.560;10.246;2023-09-18T06:22:29;6.72;;;5.53;;
18748;SDS011;9503;53.560;10.246;2023-09-18T06:24:56;7.95;;;5.50;;
18748;SDS011;9503;53.560;10.246;2023-09-18T06:27:23;8.07;;;5.57;;
18748;SDS011;9503;53.560;10.246;2023-09-18T06:29:49;7.85;;;5.65;;
18748;SDS011;9503;53.560;10.246;2023-09-18T06:32:17;6.38;;;5.38;;
18748;SDS011;9503;53.560;10.246;2023-09-18T06:34:44;6.97;;;5.43;;
18748;SDS011;9503;53.560;10.246;2023-09-18T06:37:12;8.00;;;5.80;;
18748;SDS011;9503;53.560;10.246;2023-09-18T06:39:39;7.60;;;6.28;;
18748;SDS011;9503;53.560;10.246;2023-09-18T06:42:06;7.00;;;6.20;;
18748;SDS011;9503;53.560;10.246;2023-09-18T06:44:32;8.10;;;6.22;;
18748;SDS011;9503;53.560;10.246;2023-09-18T06:46:59;6.40;;;5.20;;
18748;SDS011;9503;53.560;10.246;2023-09-18T06:49:27;6.97;;;5.72;;
18748;SDS011;9503;53.560;10.246;2023-09-18T06:51:53;8.75;;;6.05;;
18748;SDS011;9503;53.560;10.246;2023-09-18T06:54:20;5.88;;;5.28;;
18748;SDS011;9503;53.560;10.246;2023-09-18T06:56:47;7.88;;;5.93;;
18748;SDS011;9503;53.560;10.246;2023-09-18T06:59:13;6.93;;;5.28;;
18748;SDS011;9503;53.560;10.246;2023-09-18T07:01:41;8.30;;;5.18;;
18748;SDS011;9503;53.560;10.246;2023-09-18T07:04:07;5.78;;;5.13;;
18748;SDS011;9503;53.560;10.246;2023-09-18T07:06:36;6.75;;;5.95;;
18748;SDS011;9503;53.560;10.246;2023-09-18T07:09:03;6.57;;;5.63;;
18748;SDS011;9503;53.560;10.246;2023-09-18T07:11:32;6.35;;;5.65;;
18748;SDS011;9503;53.560;10.246;2023-09-18T07:13:59;10.40;;;5.47;;
18748;SDS011;9503;53.560;10.246;2023-09-18T07:16:26;7.68;;;5.75;;
18748;SDS011;9503;53.560;10.246;2023-09-18T07:18:52;7.47;;;5.80;;
18748;SDS011;9503;53.560;10.246;2023-09-18T07:21:19;6.45;;;5.50;;
18748;SDS011;9503;53.560;10.246;2023-09-18T07:23:47;5.63;;;5.13;;
18748;SDS011;9503;53.560;10.246;2023-09-18T07:26:15;6.68;;;5.22;;
18748;SDS011;9503;53.560;10.246;2023-09-18T07:28:42;5.95;;;5.35;;
18748;SDS011;9503;53.560;10.246;2023-09-18T07:31:09;7.85;;;5.40;;
18748;SDS011;9503;53.560;10.246;2023-09-18T07:33:39;5.80;;;5.20;;
18748;SDS011;9503;53.560;10.246;2023-09-18T07:36:06;7.03;;;5.22;;
18748;SDS011;9503;53.560;10.246;2023-09-18T07:38:35;5.47;;;4.97;;
18748;SDS011;9503;53.560;10.246;2023-09-18T07:41:03;5.63;;;5.03;;
18748;SDS011;9503;53.560;10.246;2023-09-18T07:43:29;5.20;;;4.70;;
18748;SDS011;9503;53.560;10.246;2023-09-18T07:45:56;6.43;;;5.07;;
18748;SDS011;9503;53.560;10.246;2023-09-18T07:48:24;7.97;;;4.93;;
18748;SDS011;9503;53.560;10.246;2023-09-18T07:50:51;6.03;;;5.00;;
18748;SDS011;9503;53.560;10.246;2023-09-18T07:53:19;7.95;;;4.90;;
18748;SDS011;9503;53.560;10.246;2023-09-18T07:55:47;5.88;;;5.15;;
18748;SDS011;9503;53.560;10.246;2023-09-18T07:58:15;8.15;;;4.85;;
18748;SDS011;9503;53.560;10.246;2023-09-18T08:00:42;5.18;;;4.68;;
18748;SDS011;9503;53.560;10.246;2023-09-18T08:03:09;7.03;;;5.43;;
18748;SDS011;9503;53.560;10.246;2023-09-18T08:05:36;5.50;;;5.00;;
18748;SDS011;9503;53.560;10.246;2023-09-18T08:08:14;6.90;;;5.25;;
18748;SDS011;9503;53.560;10.246;2023-09-18T08:10:41;5.30;;;4.15;;
18748;SDS011;9503;53.560;10.246;2023-09-18T08:13:13;4.97;;;4.40;;
18748;SDS011;9503;53.560;10.246;2023-09-18T08:15:44;6.63;;;4.68;;
18748;SDS011;9503;53.560;10.246;2023-09-18T08:18:12;8.98;;;4.97;;
18748;SDS011;9503;53.560;10.246;2023-09-18T08:20:40;4.90;;;4.40;;
18748;SDS011;9503;53.560;10.246;2023-09-18T08:23:07;5.75;;;4.70;;
18748;SDS011;9503;53.560;10.246;2023-09-18T08:25:34;8.52;;;4.60;;
18748;SDS011;9503;53.560;10.246;2023-09-18T08:28:02;5.53;;;4.75;;
18748;SDS011;9503;53.560;10.246;2023-09-18T08:30:31;4.97;;;4.50;;
18748;SDS011;9503;53.560;10.246;2023-09-18T08:32:59;5.00;;;4.50;;
18748;SDS011;9503;53.560;10.246;2023-09-18T08:35:26;5.20;;;4.70;;
18748;SDS011;9503;53.560;10.246;2023-09-18T08:37:54;5.05;;;4.43;;
18748;SDS011;9503;53.560;10.246;2023-09-18T08:40:22;5.95;;;5.00;;
18748;SDS011;9503;53.560;10.246;2023-09-18T08:42:51;5.90;;;5.20;;
18748;SDS011;9503;53.560;10.246;2023-09-18T08:45:21;5.47;;;4.78;;
18748;SDS011;9503;53.560;10.246;2023-09-18T08:47:51;5.03;;;4.53;;
18748;SDS011;9503;53.560;10.246;2023-09-18T08:50:21;5.50;;;5.00;;
18748;SDS011;9503;53.560;10.246;2023-09-18T08:52:48;5.00;;;4.50;;
18748;SDS011;9503;53.560;10.246;2023-09-18T08:55:15;5.97;;;4.50;;
18748;SDS011;9503;53.560;10.246;2023-09-18T08:57:43;5.65;;;5.05;;
18748;SDS011;9503;53.560;10.246;2023-09-18T09:00:11;6.97;;;4.85;;
18748;SDS011;9503;53.560;10.246;2023-09-18T09:02:41;4.43;;;4.03;;
18748;SDS011;9503;53.560;10.246;2023-09-18T09:05:08;5.18;;;4.47;;
18748;SDS011;9503;53.560;10.246;2023-09-18T09:07:37;6.28;;;4.55;;
18748;SDS011;9503;53.560;10.246;2023-09-18T09:10:03;4.88;;;4.43;;
18748;SDS011;9503;53.560;10.246;2023-09-18T09:15:16;4.65;;;4.25;;
18748;SDS011;9503;53.560;10.246;2023-09-18T09:17:43;7.95;;;4.30;;
18748;SDS011;9503;53.560;10.246;2023-09-18T09:20:10;6.13;;;4.82;;
18748;SDS011;9503;53.560;10.246;2023-09-18T09:22:39;4.55;;;4.13;;
18748;SDS011;9503;53.560;10.246;2023-09-18T09:27:51;6.47;;;4.15;;
18748;SDS011;9503;53.560;10.246;2023-09-18T09:30:18;6.93;;;4.70;;
18748;SDS011;9503;53.560;10.246;2023-09-18T09:32:50;5.72;;;4.07;;
18748;SDS011;9503;53.560;10.246;2023-09-18T09:35:19;5.80;;;4.28;;
18748;SDS011;9503;53.560;10.246;2023-09-18T09:37:55;5.65;;;4.35;;
18748;SDS011;9503;53.560;10.246;2023-09-18T09:40:24;5.82;;;4.22;;
18748;SDS011;9503;53.560;10.246;2023-09-18T09:42:51;6.95;;;4.18;;
18748;SDS011;9503;53.560;10.246;2023-09-18T09:45:25;4.18;;;3.83;;
18748;SDS011;9503;53.560;10.246;2023-09-18T09:47:53;4.35;;;3.95;;
18748;SDS011;9503;53.560;10.246;2023-09-18T09:50:20;4.43;;;3.97;;
18748;SDS011;9503;53.560;10.246;2023-09-18T09:52:48;7.95;;;4.07;;
18748;SDS011;9503;53.560;10.246;2023-09-18T09:55:21;4.22;;;3.83;;
18748;SDS011;9503;53.560;10.246;2023-09-18T09:57:50;4.93;;;4.40;;
18748;SDS011;9503;53.560;10.246;2023-09-18T10:00:19;6.10;;;4.18;;
18748;SDS011;9503;53.560;10.246;2023-09-18T10:02:55;5.90;;;4.50;;
18748;SDS011;9503;53.560;10.246;2023-09-18T10:05:24;4.63;;;4.05;;
18748;SDS011;9503;53.560;10.246;2023-09-18T10:07:54;7.57;;;4.22;;
18748;SDS011;9503;53.560;10.246;2023-09-18T10:10:27;5.60;;;4.40;;
18748;SDS011;9503;53.560;10.246;2023-09-18T10:12:57;5.63;;;3.97;;
18748;SDS011;9503;53.560;10.246;2023-09-18T10:15:26;7.72;;;4.68;;
18748;SDS011;9503;53.560;10.246;2023-09-18T10:17:58;5.78;;;4.32;;
18748;SDS011;9503;53.560;10.246;2023-09-18T10:20:26;5.18;;;4.13;;
18748;SDS011;9503;53.560;10.246;2023-09-18T10:22:57;6.47;;;4.97;;
18748;SDS011;9503;53.560;10.246;2023-09-18T10:25:28;5.72;;;4.13;;
18748;SDS011;9503;53.560;10.246;2023-09-18T10:27:57;6.88;;;4.22;;
18748;SDS011;9503;53.560;10.246;2023-09-18T10:30:26;8.23;;;4.68;;
18748;SDS011;9503;53.560;10.246;2023-09-18T10:32:55;6.07;;;4.05;;
18748;SDS011;9503;53.560;10.246;2023-09-18T10:35:23;5.85;;;4.80;;
18748;SDS011;9503;53.560;10.246;2023-09-18T10:37:51;5.97;;;4.63;;
18748;SDS011;9503;53.560;10.246;2023-09-18T10:40:21;5.88;;;4.68;;
18748;SDS011;9503;53.560;10.246;2023-09-18T10:42:50;5.50;;;4.05;;
18748;SDS011;9503;53.560;10.246;2023-09-18T10:45:18;6.18;;;4.15;;
18748;SDS011;9503;53.560;10.246;2023-09-18T10:47:45;9.07;;;4.60;;
18748;SDS011;9503;53.560;10.246;2023-09-18T10:50:15;8.15;;;4.45;;
18748;SDS011;9503;53.560;10.246;2023-09-18T10:52:49;5.32;;;4.60;;
18748;SDS011;9503;53.560;10.246;2023-09-18T10:55:15;4.95;;;4.25;;
18748;SDS011;9503;53.560;10.246;2023-09-18T10:57:50;9.63;;;4.57;;
18748;SDS011;9503;53.560;10.246;2023-09-18T11:00:18;6.15;;;4.03;;
18748;SDS011;9503;53.560;10.246;2023-09-18T11:02:48;5.38;;;4.07;;
18748;SDS011;9503;53.560;10.246;2023-09-18T11:05:25;6.95;;;4.63;;
18748;SDS011;9503;53.560;10.246;2023-09-18T11:10:59;7.00;;;4.30;;
18748;SDS011;9503;53.560;10.246;2023-09-18T11:13:36;8.32;;;4.13;;
18748;SDS011;9503;53.560;10.246;2023-09-18T11:16:15;5.53;;;4.15;;
18748;SDS011;9503;53.560;10.246;2023-09-18T11:18:45;8.55;;;3.75;;
18748;SDS011;9503;53.560;10.246;2023-09-18T11:21:14;5.13;;;4.05;;
18748;SDS011;9503;53.560;10.246;2023-09-18T11:23:43;6.50;;;4.35;;
18748;SDS011;9503;53.560;10.246;2023-09-18T11:26:10;6.15;;;4.15;;
18748;SDS011;9503;53.560;10.246;2023-09-18T11:28:38;6.22;;;3.90;;
18748;SDS011;9503;53.560;10.246;2023-09-18T11:31:05;9.77;;;3.72;;
18748;SDS011;9503;53.560;10.246;2023-09-18T11:33:33;5.50;;;4.10;;
18748;SDS011;9503;53.560;10.246;2023-09-18T11:36:05;6.82;;;4.10;;
18748;SDS011;9503;53.560;10.246;2023-09-18T11:38:33;7.40;;;4.18;;
18748;SDS011;9503;53.560;10.246;2023-09-18T11:41:14;6.53;;;3.97;;
18748;SDS011;9503;53.560;10.246;2023-09-18T11:43:47;8.32;;;4.15;;
18748;SDS011;9503;53.560;10.246;2023-09-18T11:46:17;6.80;;;3.75;;
18748;SDS011;9503;53.560;10.246;2023-09-18T11:48:44;8.23;;;4.22;;
18748;SDS011;9503;53.560;10.246;2023-09-18T11:51:15;9.20;;;4.55;;
18748;SDS011;9503;53.560;10.246;2023-09-18T11:53:49;4.93;;;4.07;;
18748;SDS011;9503;53.560;10.246;2023-09-18T11:56:18;6.85;;;4.28;;
18748;SDS011;9503;53.560;10.246;2023-09-18T11:58:45;6.55;;;4.30;;
18748;SDS011;9503;53.560;10.246;2023-09-18T12:01:14;5.63;;;4.03;;
18748;SDS011;9503;53.560;10.246;2023-09-18T12:03:41;3.90;;;3.53;;
18748;SDS011;9503;53.560;10.246;2023-09-18T12:06:08;6.70;;;4.15;;
18748;SDS011;9503;53.560;10.246;2023-09-18T12:08:38;6.22;;;4.20;;
18748;SDS011;9503;53.560;10.246;2023-09-18T12:11:05;7.53;;;4.07;;
18748;SDS011;9503;53.560;10.246;2023-09-18T12:13:33;5.97;;;3.70;;
18748;SDS011;9503;53.560;10.246;2023-09-18T12:16:00;6.50;;;4.20;;
18748;SDS011;9503;53.560;10.246;2023-09-18T12:18:31;9.02;;;4.60;;
18748;SDS011;9503;53.560;10.246;2023-09-18T12:21:00;6.35;;;3.75;;
18748;SDS011;9503;53.560;10.246;2023-09-18T12:23:36;5.13;;;3.33;;
18748;SDS011;9503;53.560;10.246;2023-09-18T12:26:03;6.07;;;3.10;;
18748;SDS011;9503;53.560;10.246;2023-09-18T12:28:32;5.78;;;3.00;;
18748;SDS011;9503;53.560;10.246;2023-09-18T12:30:59;5.20;;;3.40;;
18748;SDS011;9503;53.560;10.246;2023-09-18T12:33:33;7.00;;;2.92;;
18748;SDS011;9503;53.560;10.246;2023-09-18T12:36:00;12.98;;;3.45;;
18748;SDS011;9503;53.560;10.246;2023-09-18T12:38:28;6.18;;;3.00;;
18748;SDS011;9503;53.560;10.246;2023-09-18T12:40:57;7.18;;;3.28;;
18748;SDS011;9503;53.560;10.246;2023-09-18T12:43:39;8.20;;;2.88;;
18748;SDS011;9503;53.560;10.246;2023-09-18T12:46:07;6.40;;;2.88;;
18748;SDS011;9503;53.560;10.246;2023-09-18T12:48:37;5.70;;;3.08;;
18748;SDS011;9503;53.560;10.246;2023-09-18T12:51:10;6.75;;;2.50;;
18748;SDS011;9503;53.560;10.246;2023-09-18T12:53:37;7.63;;;2.80;;
18748;SDS011;9503;53.560;10.246;2023-09-18T12:56:04;5.05;;;2.60;;
18748;SDS011;9503;53.560;10.246;2023-09-18T12:58:32;4.72;;;2.53;;
18748;SDS011;9503;53.560;10.246;2023-09-18T13:01:03;4.20;;;2.60;;
18748;SDS011;9503;53.560;10.246;2023-09-18T13:03:33;6.50;;;2.65;;
18748;SDS011;9503;53.560;10.246;2023-09-18T13:06:08;5.38;;;2.45;;
18748;SDS011;9503;53.560;10.246;2023-09-18T13:08:35;3.38;;;2.30;;
18748;SDS011;9503;53.560;10.246;2023-09-18T13:11:02;6.22;;;2.80;;
18748;SDS011;9503;53.560;10.246;2023-09-18T13:13:29;4.97;;;2.63;;
18748;SDS011;9503;53.560;10.246;2023-09-18T13:15:57;3.72;;;2.58;;
18748;SDS011;9503;53.560;10.246;2023-09-18T13:18:24;6.38;;;2.92;;
18748;SDS011;9503;53.560;10.246;2023-09-18T13:20:51;6.22;;;2.63;;
18748;SDS011;9503;53.560;10.246;2023-09-18T13:23:20;6.20;;;2.72;;
18748;SDS011;9503;53.560;10.246;2023-09-18T13:25:46;6.00;;;2.50;;
18748;SDS011;9503;53.560;10.246;2023-09-18T13:28:13;6.72;;;2.50;;
18748;SDS011;9503;53.560;10.246;2023-09-18T13:30:42;5.10;;;2.40;;
18748;SDS011;9503;53.560;10.246;2023-09-18T13:33:09;5.20;;;2.50;;
18748;SDS011;9503;53.560;10.246;2023-09-18T13:35:37;6.43;;;3.10;;
18748;SDS011;9503;53.560;10.246;2023-09-18T13:38:06;4.10;;;2.40;;
18748;SDS011;9503;53.560;10.246;2023-09-18T13:40:34;6.18;;;2.20;;
18748;SDS011;9503;53.560;10.246;2023-09-18T13:43:02;7.03;;;2.30;;
18748;SDS011;9503;53.560;10.246;2023-09-18T13:45:30;4.07;;;2.22;;
18748;SDS011;9503;53.560;10.246;2023-09-18T13:47:56;3.25;;;2.38;;
18748;SDS011;9503;53.560;10.246;2023-09-18T13:50:23;5.82;;;2.53;;
18748;SDS011;9503;53.560;10.246;2023-09-18T13:52:49;8.82;;;2.42;;
18748;SDS011;9503;53.560;10.246;2023-09-18T13:55:16;4.22;;;2.05;;
18748;SDS011;9503;53.560;10.246;2023-09-18T13:57:44;5.22;;;2.22;;
18748;SDS011;9503;53.560;10.246;2023-09-18T14:00:11;5.22;;;2.58;;
18748;SDS011;9503;53.560;10.246;2023-09-18T14:02:39;4.45;;;2.40;;
18748;SDS011;9503;53.560;10.246;2023-09-18T14:05:06;7.65;;;2.65;;
18748;SDS011;9503;53.560;10.246;2023-09-18T14:07:34;7.30;;;2.60;;
18748;SDS011;9503;53.560;10.246;2023-09-18T14:10:00;8.68;;;2.58;;
18748;SDS011;9503;53.560;10.246;2023-09-18T14:12:29;4.63;;;2.60;;
18748;SDS011;9503;53.560;10.246;2023-09-18T14:14:58;4.22;;;2.33;;
18748;SDS011;9503;53.560;10.246;2023-09-18T14:17:25;5.55;;;2.50;;
18748;SDS011;9503;53.560;10.246;2023-09-18T14:19:51;3.45;;;2.50;;
18748;SDS011;9503;53.560;10.246;2023-09-18T14:22:18;4.05;;;2.60;;
18748;SDS011;9503;53.560;10.246;2023-09-18T14:24:45;4.43;;;2.58;;
18748;SDS011;9503;53.560;10.246;2023-09-18T14:27:13;5.00;;;2.40;;
18748;SDS011;9503;53.560;10.246;2023-09-18T14:29:39;4.80;;;2.38;;
18748;SDS011;9503;53.560;10.246;2023-09-18T14:32:07;6.32;;;2.45;;
18748;SDS011;9503;53.560;10.246;2023-09-18T14:34:34;6.00;;;2.60;;
18748;SDS011;9503;53.560;10.246;2023-09-18T14:37:01;5.55;;;2.38;;
18748;SDS011;9503;53.560;10.246;2023-09-18T14:39:29;5.35;;;2.03;;
18748;SDS011;9503;53.560;10.246;2023-09-18T14:41:56;6.47;;;2.30;;
18748;SDS011;9503;53.560;10.246;2023-09-18T14:44:22;3.95;;;2.58;;
18748;SDS011;9503;53.560;10.246;2023-09-18T14:46:50;6.60;;;2.55;;
18748;SDS011;9503;53.560;10.246;2023-09-18T14:49:19;6.07;;;2.20;;
18748;SDS011;9503;53.560;10.246;2023-09-18T14:51:46;4.07;;;2.22;;
18748;SDS011;9503;53.560;10.246;2023-09-18T14:54:14;3.17;;;2.10;;
18748;SDS011;9503;53.560;10.246;2023-09-18T14:56:41;4.70;;;2.03;;
18748;SDS011;9503;53.560;10.246;2023-09-18T14:59:07;5.00;;;2.17;;
18748;SDS011;9503;53.560;10.246;2023-09-18T15:01:34;5.00;;;2.20;;